Time;durP1;ratioP1;P1;durP2;ratioP2;P2;SDS_P1;SDS_P2;PMS_P1;PMS_P2;Temp;Humidity;BMP_temperature;BMP_pressure;BME280_temperature;BME280_humidity;BME280_pressure;Samples;Min_cycle;Max_cycle;Signal;HPM_P1;HPM_P2
2024/03/20 00:01:49;;;;;;;9.73;6.67;;;;;;;13.87;56.34;97720.72;5029279;28;20183;-72
2024/03/20 00:04:14;;;;;;;7.40;6.07;;;;;;;13.91;56.30;97715.97;5026400;28;20550;-73
2024/03/20 00:06:39;;;;;;;11.30;6.57;;;;;;;13.92;56.37;97715.78;5038037;28;20234;-70
2024/03/20 00:09:07;;;;;;;8.07;5.90;;;;;;;13.92;56.27;97714.97;5024835;28;20199;-73
2024/03/20 00:11:32;;;;;;;13.97;6.67;;;;;;;13.94;55.96;97716.47;5026535;28;20184;-70
2024/03/20 00:13:58;;;;;;;11.03;6.07;;;;;;;13.87;55.46;97709.34;5031798;28;20414;-68
2024/03/20 00:16:24;;;;;;;8.77;6.43;;;;;;;13.77;55.90;97718.22;5032931;28;20312;-72
2024/03/20 00:18:50;;;;;;;7.80;6.57;;;;;;;13.77;55.79;97720.03;5033940;28;20179;-70
2024/03/20 00:21:16;;;;;;;9.30;6.07;;;;;;;13.74;56.08;97717.69;5036029;28;20182;-73
2024/03/20 00:23:41;;;;;;;8.70;6.40;;;;;;;13.76;55.95;97710.47;5031786;28;20480;-72
2024/03/20 00:26:07;;;;;;;7.23;6.33;;;;;;;13.66;56.02;97714.06;5034703;28;20524;-70
2024/03/20 00:28:32;;;;;;;8.67;6.60;;;;;;;13.65;56.05;97712.41;5035171;28;20176;-70
2024/03/20 00:30:58;;;;;;;10.00;6.97;;;;;;;13.58;56.19;97711.41;5031908;28;20634;-69
2024/03/20 00:33:23;;;;;;;10.67;6.73;;;;;;;13.55;56.22;97717.00;5034901;28;20594;-71
2024/03/20 00:35:49;;;;;;;9.13;7.07;;;;;;;13.56;55.96;97710.75;5034583;28;20207;-69
2024/03/20 00:38:14;;;;;;;13.03;6.93;;;;;;;13.49;56.13;97707.91;5032351;28;20258;-71
2024/03/20 00:40:40;;;;;;;14.23;6.20;;;;;;;13.43;56.13;97713.00;5036994;28;20185;-71
2024/03/20 00:43:05;;;;;;;11.47;6.37;;;;;;;13.41;56.35;97699.16;5031965;28;20218;-71
2024/03/20 00:45:31;;;;;;;6.77;6.07;;;;;;;13.42;56.61;97701.63;5037352;28;20622;-70
2024/03/20 00:47:56;;;;;;;9.13;6.57;;;;;;;13.44;56.21;97701.47;5035188;28;20187;-72
2024/03/20 00:50:22;;;;;;;7.87;5.97;;;;;;;13.40;56.28;97702.78;5037173;28;20554;-68
2024/03/20 00:52:47;;;;;;;13.80;6.60;;;;;;;13.36;56.28;97697.78;5032791;28;20207;-71
2024/03/20 00:55:13;;;;;;;10.20;6.50;;;;;;;13.42;56.06;97696.34;5038309;28;20200;-72
2024/03/20 00:57:38;;;;;;;6.37;5.73;;;;;;;13.42;56.10;97695.53;5031930;28;20622;-68
2024/03/20 01:00:05;;;;;;;9.90;6.20;;;;;;;13.41;56.21;97688.63;5031764;28;20241;-69
2024/03/20 01:02:31;;;;;;;8.40;6.97;;;;;;;13.44;56.00;97693.59;5031289;28;20861;-68
2024/03/20 01:04:57;;;;;;;8.93;6.17;;;;;;;13.47;55.78;97688.00;5031764;28;20433;-69
2024/03/20 01:07:23;;;;;;;10.67;6.83;;;;;;;13.40;55.87;97692.25;5031930;28;20442;-69
2024/03/20 01:09:48;;;;;;;7.23;6.40;;;;;;;13.38;55.88;97692.38;5031274;28;20454;-68
2024/03/20 01:12:14;;;;;;;8.57;6.20;;;;;;;13.34;55.65;97688.41;5033516;28;20660;-70
2024/03/20 01:14:39;;;;;;;9.57;6.60;;;;;;;13.25;56.29;97694.63;5036423;28;20211;-70
2024/03/20 01:17:05;;;;;;;10.10;6.53;;;;;;;13.32;56.08;97691.22;5033568;28;20706;-68
2024/03/20 01:19:30;;;;;;;11.47;6.87;;;;;;;13.31;56.02;97678.19;5044248;28;20179;-68
2024/03/20 01:21:56;;;;;;;10.37;6.60;;;;;;;13.27;55.87;97682.94;5031744;28;20236;-71
2024/03/20 01:24:21;;;;;;;9.20;6.23;;;;;;;13.26;56.01;97680.47;5035585;28;20593;-69
2024/03/20 01:26:46;;;;;;;8.00;6.50;;;;;;;13.28;55.91;97681.97;5031959;28;20179;-70
2024/03/20 01:29:12;;;;;;;8.87;7.00;;;;;;;13.22;55.82;97679.97;5040093;28;20204;-69
2024/03/20 01:31:37;;;;;;;9.70;6.60;;;;;;;13.24;55.18;97682.44;5035855;28;20550;-71
2024/03/20 01:34:03;;;;;;;7.40;6.60;;;;;;;13.24;55.60;97677.19;5029181;28;20269;-68
2024/03/20 01:36:28;;;;;;;10.20;7.00;;;;;;;13.18;55.57;97671.56;5025363;28;20231;-71
2024/03/20 01:38:54;;;;;;;11.37;7.17;;;;;;;13.15;55.56;97674.53;5030794;28;20184;-70
2024/03/20 01:41:20;;;;;;;8.53;6.97;;;;;;;13.15;55.66;97676.31;5035927;28;20791;-72
2024/03/20 01:43:53;;;;;;;7.13;6.40;;;;;;;13.09;55.64;97675.13;5038182;28;20232;-70
2024/03/20 01:46:30;;;;;;;12.43;7.50;;;;;;;13.08;55.81;97667.41;5030356;28;20254;-68
2024/03/20 01:48:56;;;;;;;9.53;7.20;;;;;;;12.97;55.96;97668.50;5030220;28;20430;-71
2024/03/20 01:51:21;;;;;;;10.23;7.60;;;;;;;12.97;56.17;97664.06;5037061;28;20975;-69
2024/03/20 01:53:48;;;;;;;10.80;7.40;;;;;;;12.82;56.41;97665.63;5028961;28;20425;-70
2024/03/20 01:56:13;;;;;;;8.77;7.53;;;;;;;12.87;56.39;97664.16;5029029;28;20278;-70
2024/03/20 01:58:39;;;;;;;9.47;7.40;;;;;;;12.84;56.85;97661.03;5030737;28;20422;-68
2024/03/20 02:01:04;;;;;;;8.97;7.10;;;;;;;12.87;56.57;97668.59;5039559;28;20187;-70
2024/03/20 02:03:30;;;;;;;8.40;6.50;;;;;;;12.95;55.97;97667.81;5030231;28;20176;-71
2024/03/20 02:05:55;;;;;;;8.60;6.90;;;;;;;12.98;56.11;97667.50;5037959;28;20199;-72
2024/03/20 02:08:21;;;;;;;16.77;7.53;;;;;;;12.98;56.17;97664.88;5036465;28;20183;-72
2024/03/20 02:10:46;;;;;;;11.47;8.20;;;;;;;12.98;55.99;97667.50;5030499;28;20211;-72
2024/03/20 02:13:12;;;;;;;12.03;6.87;;;;;;;12.87;56.00;97673.84;5028976;28;20675;-69
2024/03/20 02:15:37;;;;;;;7.60;6.47;;;;;;;12.73;56.83;97665.53;5030200;28;20386;-70
2024/03/20 02:18:04;;;;;;;8.70;6.70;;;;;;;12.60;57.27;97670.41;5030300;28;20182;-71
2024/03/20 02:20:30;;;;;;;7.33;6.27;;;;;;;12.71;57.09;97667.53;5035881;28;20171;-71
2024/03/20 02:22:55;;;;;;;10.20;7.47;;;;;;;12.75;56.78;97663.59;5032488;28;20965;-70
2024/03/20 02:25:30;;;;;;;9.93;6.80;;;;;;;12.65;57.07;97667.31;5030137;28;20438;-69
2024/03/20 02:27:57;;;;;;;10.30;6.90;;;;;;;12.72;56.87;97661.28;5029070;28;20179;-73
2024/03/20 02:30:23;;;;;;;7.80;6.60;;;;;;;12.72;56.85;97668.34;5029837;28;20450;-71
2024/03/20 02:32:48;;;;;;;8.73;6.90;;;;;;;12.71;56.95;97662.28;5029649;28;20418;-70
2024/03/20 02:35:14;;;;;;;8.27;6.47;;;;;;;12.78;56.81;97656.38;5025912;28;20591;-72
2024/03/20 02:37:39;;;;;;;9.07;6.93;;;;;;;12.80;56.45;97659.69;5019190;28;20180;-70
2024/03/20 02:40:05;;;;;;;7.93;6.20;;;;;;;12.82;56.17;97663.00;5039069;28;20177;-72
2024/03/20 02:42:33;;;;;;;9.33;6.80;;;;;;;12.75;56.22;97668.03;5028255;28;20740;-68
2024/03/20 02:44:59;;;;;;;10.17;7.80;;;;;;;12.66;56.25;97668.97;5029398;28;20196;-70
2024/03/20 02:47:24;;;;;;;10.70;8.00;;;;;;;12.55;55.82;97662.16;5022450;28;20477;-70
2024/03/20 02:49:52;;;;;;;6.77;6.07;;;;;;;12.50;56.71;97667.03;5030013;28;20212;-69
2024/03/20 02:52:18;;;;;;;8.57;6.33;;;;;;;12.42;56.80;97660.75;5040005;28;20178;-70
2024/03/20 02:54:44;;;;;;;6.10;5.20;;;;;;;12.52;56.73;97667.72;5031023;28;20446;-70
2024/03/20 02:57:09;;;;;;;8.07;5.20;;;;;;;12.50;56.77;97667.03;5028527;28;20423;-70
2024/03/20 02:59:35;;;;;;;5.40;4.90;;;;;;;12.51;56.63;97668.69;5035646;28;20597;-70
2024/03/20 03:02:00;;;;;;;5.87;5.13;;;;;;;12.46;56.52;97665.72;5031249;28;20176;-70
2024/03/20 03:04:26;;;;;;;8.67;5.07;;;;;;;12.31;57.53;97668.88;5029063;28;20233;-70
2024/03/20 03:06:51;;;;;;;10.63;4.93;;;;;;;12.34;56.75;97663.31;5029044;28;20494;-71
2024/03/20 03:09:17;;;;;;;5.60;5.00;;;;;;;12.43;57.32;97661.56;5030509;28;20291;-70
2024/03/20 03:11:45;;;;;;;7.33;5.13;;;;;;;12.42;57.18;97660.75;5026822;28;20186;-69
2024/03/20 03:14:14;;;;;;;6.13;5.53;;;;;;;12.41;56.71;97664.34;5029199;28;20195;-69
2024/03/20 03:16:40;;;;;;;8.03;5.90;;;;;;;12.44;56.70;97664.06;5029902;28;20543;-70
2024/03/20 03:19:06;;;;;;;9.03;7.03;;;;;;;12.42;56.83;97673.91;5038349;28;20402;-70
2024/03/20 03:21:31;;;;;;;11.00;6.43;;;;;;;12.35;56.53;97667.56;5029172;28;20418;-69
2024/03/20 03:23:57;;;;;;;7.50;6.80;;;;;;;12.38;56.67;97672.53;5039561;28;20630;-70
2024/03/20 03:26:24;;;;;;;8.17;6.90;;;;;;;12.29;56.87;97668.19;5033095;28;20196;-70
2024/03/20 03:28:50;;;;;;;8.13;6.30;;;;;;;12.35;56.57;97664.94;5034233;28;20194;-69
2024/03/20 03:31:15;;;;;;;8.00;6.97;;;;;;;12.42;56.63;97678.31;5028549;28;20454;-72
2024/03/20 03:33:40;;;;;;;7.50;5.90;;;;;;;12.40;56.68;97675.84;5028839;28;20450;-71
2024/03/20 03:36:06;;;;;;;14.97;6.80;;;;;;;12.37;56.86;97676.16;5031627;28;20203;-70
2024/03/20 03:38:32;;;;;;;7.80;6.27;;;;;;;12.32;56.93;97675.78;5028914;28;20199;-69
2024/03/20 03:41:04;;;;;;;9.43;6.83;;;;;;;12.31;56.58;97675.94;5032675;28;20939;-71
2024/03/20 03:43:29;;;;;;;10.50;7.10;;;;;;;12.32;56.66;97678.41;5034129;28;20716;-71
2024/03/20 03:45:55;;;;;;;7.00;6.30;;;;;;;12.34;57.36;97680.88;5029388;28;20534;-69
2024/03/20 03:48:21;;;;;;;9.27;6.30;;;;;;;12.17;57.87;97685.19;5031686;28;20190;-71
2024/03/20 03:50:49;;;;;;;8.30;5.60;;;;;;;12.20;57.35;97684.88;5035523;28;20207;-70
2024/03/20 03:53:15;;;;;;;11.27;6.20;;;;;;;12.23;57.81;97681.94;5027353;28;20768;-72
2024/03/20 03:55:41;;;;;;;13.90;6.00;;;;;;;12.26;58.15;97684.25;5034588;28;20476;-70
2024/03/20 03:58:06;;;;;;;8.33;6.33;;;;;;;12.29;57.60;97673.47;5030073;28;20466;-71
2024/03/20 04:00:32;;;;;;;6.60;5.90;;;;;;;12.29;57.73;97681.34;5028773;28;20168;-71
2024/03/20 04:02:57;;;;;;;8.30;5.93;;;;;;;12.31;57.35;97676.75;5032662;28;20200;-70
2024/03/20 04:05:23;;;;;;;7.67;6.17;;;;;;;12.26;57.29;97684.25;5027544;28;20235;-70
2024/03/20 04:07:50;;;;;;;9.50;6.50;;;;;;;12.29;57.19;97679.53;5028599;28;20716;-69
2024/03/20 04:10:15;;;;;;;7.30;6.60;;;;;;;12.20;57.19;97679.63;5023413;28;20524;-70
2024/03/20 04:12:42;;;;;;;12.40;6.20;;;;;;;12.20;57.16;97684.88;5027667;28;20458;-70
2024/03/20 04:15:08;;;;;;;8.33;5.93;;;;;;;12.12;57.79;97680.38;5028378;28;20207;-70
2024/03/20 04:17:33;;;;;;;6.50;5.43;;;;;;;12.13;57.72;97680.22;5026182;28;20513;-72
2024/03/20 04:19:59;;;;;;;9.10;5.87;;;;;;;12.05;58.06;97688.03;5027651;28;20509;-71
2024/03/20 04:22:24;;;;;;;6.20;5.60;;;;;;;12.05;58.50;97682.78;5030130;28;20720;-70
2024/03/20 04:24:49;;;;;;;7.33;5.70;;;;;;;12.06;58.50;97676.56;5026043;28;20690;-69
2024/03/20 04:27:15;;;;;;;9.10;6.40;;;;;;;12.13;58.05;97677.59;5024876;28;20377;-70
2024/03/20 04:29:41;;;;;;;12.63;6.47;;;;;;;12.17;57.69;97677.28;5027742;28;20295;-70
2024/03/20 04:32:06;;;;;;;8.40;5.73;;;;;;;12.10;57.51;97677.06;5027286;28;20180;-72
2024/03/20 04:34:31;;;;;;;7.93;6.10;;;;;;;12.15;57.24;97672.19;5027061;28;20182;-70
2024/03/20 04:36:57;;;;;;;7.57;6.03;;;;;;;12.09;57.21;97676.25;5027124;28;20183;-71
2024/03/20 04:39:29;;;;;;;8.27;5.90;;;;;;;12.09;57.01;97667.53;5026940;28;20176;-70
2024/03/20 04:41:57;;;;;;;8.60;6.20;;;;;;;12.12;57.17;97673.31;5027881;28;20184;-71
2024/03/20 04:44:24;;;;;;;8.80;6.40;;;;;;;12.08;56.76;97671.97;5027596;28;20532;-70
2024/03/20 04:46:49;;;;;;;8.30;6.20;;;;;;;12.04;57.77;97675.88;5029175;28;20414;-70
2024/03/20 04:49:15;;;;;;;7.10;5.33;;;;;;;12.04;57.62;97673.25;5036335;28;20528;-70
2024/03/20 04:51:41;;;;;;;6.60;5.73;;;;;;;12.01;57.64;97677.97;5031904;28;20211;-72
2024/03/20 04:54:06;;;;;;;6.80;5.87;;;;;;;11.97;56.98;97674.81;5024882;28;20259;-73
2024/03/20 04:56:32;;;;;;;9.97;6.43;;;;;;;11.95;57.49;97676.75;5027367;28;20278;-71
2024/03/20 04:58:57;;;;;;;9.37;6.77;;;;;;;11.97;57.45;97680.06;5029986;28;20180;-70
2024/03/20 05:01:22;;;;;;;9.63;6.60;;;;;;;11.96;56.94;97675.78;5030809;28;20211;-71
2024/03/20 05:03:48;;;;;;;10.00;6.30;;;;;;;11.94;56.73;97683.78;5030213;28;20179;-70
2024/03/20 05:06:13;;;;;;;10.80;7.00;;;;;;;11.83;57.10;97690.09;5030200;28;20236;-71
2024/03/20 05:08:39;;;;;;;8.40;6.37;;;;;;;11.73;57.54;97678.81;5029425;28;20219;-71
2024/03/20 05:11:04;;;;;;;7.60;6.20;;;;;;;11.77;57.01;97677.53;5030549;28;20203;-70
2024/03/20 05:13:30;;;;;;;11.93;6.47;;;;;;;11.78;57.14;97679.19;5023983;28;20180;-71
2024/03/20 05:15:55;;;;;;;8.83;6.50;;;;;;;11.80;57.03;97679.88;5031346;28;20216;-71
2024/03/20 05:18:21;;;;;;;8.87;6.17;;;;;;;11.82;57.30;97682.34;5028833;28;20292;-70
2024/03/20 05:20:46;;;;;;;10.70;6.23;;;;;;;11.86;57.18;97682.88;5030219;28;20282;-70
2024/03/20 05:23:11;;;;;;;8.73;6.60;;;;;;;11.87;56.97;97681.91;5033786;28;20237;-69
2024/03/20 05:25:39;;;;;;;8.00;6.50;;;;;;;11.90;56.85;97684.22;5030696;28;20203;-70
2024/03/20 05:28:05;;;;;;;7.37;6.57;;;;;;;11.95;56.96;97676.75;5030474;28;20184;-69
2024/03/20 05:30:30;;;;;;;7.00;5.80;;;;;;;11.87;57.21;97674.88;5029032;28;20817;-70
2024/03/20 05:32:56;;;;;;;13.50;7.97;;;;;;;11.80;57.45;97684.28;5028460;28;20430;-69
2024/03/20 05:35:21;;;;;;;8.33;6.30;;;;;;;11.75;57.77;97676.06;5029990;28;20199;-70
2024/03/20 05:37:47;;;;;;;6.90;6.20;;;;;;;11.68;58.47;97681.06;5030023;28;20183;-69
2024/03/20 05:40:12;;;;;;;9.67;7.17;;;;;;;11.72;59.10;97669.28;5030330;28;20278;-71
2024/03/20 05:42:38;;;;;;;11.40;7.80;;;;;;;11.86;58.32;97678.47;5035352;28;20922;-70
2024/03/20 05:45:04;;;;;;;7.40;6.17;;;;;;;11.94;58.14;97677.72;5022414;28;20279;-69
2024/03/20 05:47:34;;;;;;;10.03;7.23;;;;;;;11.98;58.02;97684.34;5035595;28;20182;-73
2024/03/20 05:50:01;;;;;;;8.77;6.10;;;;;;;12.17;57.71;97679.94;5027573;28;20508;-72
2024/03/20 05:52:26;;;;;;;14.10;7.47;;;;;;;12.41;57.57;97674.88;5029448;28;20477;-69
2024/03/20 05:54:51;;;;;;;8.83;7.77;;;;;;;12.66;56.87;97679.50;5030092;28;20943;-69
2024/03/20 05:57:17;;;;;;;10.10;7.40;;;;;;;12.65;56.44;97683.09;5029366;28;20185;-72
2024/03/20 05:59:42;;;;;;;8.67;7.50;;;;;;;12.74;56.25;97687.44;5027181;28;20184;-70
2024/03/20 06:02:08;;;;;;;8.73;7.80;;;;;;;12.71;56.28;97693.84;5022767;28;20187;-69
2024/03/20 06:04:34;;;;;;;8.10;7.30;;;;;;;12.68;56.48;97688.88;5027915;28;20179;-72
2024/03/20 06:07:01;;;;;;;10.53;7.87;;;;;;;12.63;56.78;97699.00;5033929;28;20230;-71
2024/03/20 06:09:26;;;;;;;11.80;8.60;;;;;;;12.56;57.11;97693.53;5014905;28;20460;-72
2024/03/20 06:11:51;;;;;;;14.13;7.80;;;;;;;12.60;56.79;97707.22;5030381;28;20473;-70
2024/03/20 06:14:17;;;;;;;10.83;8.47;;;;;;;12.57;57.43;97699.66;5029039;28;20214;-70
2024/03/20 06:16:43;;;;;;;12.93;7.93;;;;;;;12.71;57.25;97708.78;5028444;28;20239;-71
2024/03/20 06:19:09;;;;;;;11.67;8.40;;;;;;;12.84;56.66;97703.13;5029919;28;20191;-71
2024/03/20 06:21:34;;;;;;;11.43;7.70;;;;;;;12.83;56.81;97706.72;5029590;28;20462;-73
2024/03/20 06:23:59;;;;;;;10.97;8.20;;;;;;;12.91;57.07;97709.41;5034038;28;20200;-71
2024/03/20 06:26:25;;;;;;;9.40;8.00;;;;;;;13.04;56.78;97704.56;5029548;28;20192;-70
2024/03/20 06:28:51;;;;;;;9.53;8.27;;;;;;;13.19;56.28;97704.78;5030172;28;20175;-70
2024/03/20 06:31:16;;;;;;;7.53;6.83;;;;;;;13.40;55.40;97713.31;5029230;28;20539;-72
2024/03/20 06:33:44;;;;;;;10.10;7.30;;;;;;;13.36;55.69;97712.78;5022566;28;20211;-70
2024/03/20 06:36:09;;;;;;;9.23;7.77;;;;;;;13.55;56.15;97711.72;5042017;28;20272;-71
2024/03/20 06:38:35;;;;;;;9.97;7.10;;;;;;;13.72;56.19;97711.78;5037907;28;20591;-72
2024/03/20 06:41:03;;;;;;;12.67;8.47;;;;;;;13.90;55.33;97706.41;5030007;28;20179;-71
2024/03/20 06:43:34;;;;;;;9.37;8.23;;;;;;;13.78;55.22;97706.72;5028846;28;20180;-71
2024/03/20 06:46:00;;;;;;;11.27;7.87;;;;;;;13.91;55.12;97708.88;5037293;28;20450;-72
2024/03/20 06:48:28;;;;;;;10.17;8.27;;;;;;;14.00;54.29;97712.34;5019687;28;20458;-72
2024/03/20 06:50:53;;;;;;;8.90;7.83;;;;;;;14.16;54.97;97719.47;5033673;28;21018;-70
2024/03/20 06:53:19;;;;;;;15.27;8.00;;;;;;;14.11;53.94;97721.78;5028726;28;20505;-72
2024/03/20 06:55:48;;;;;;;8.97;8.07;;;;;;;14.27;54.87;97715.69;5029868;28;20206;-71
2024/03/20 06:58:13;;;;;;;15.63;8.10;;;;;;;14.25;53.79;97721.09;5029283;28;20537;-70
2024/03/20 07:00:39;;;;;;;8.70;7.20;;;;;;;14.33;54.85;97719.47;5029158;28;20506;-72
2024/03/20 07:03:05;;;;;;;9.70;7.90;;;;;;;14.46;54.58;97711.91;5029326;28;20179;-72
2024/03/20 07:05:31;;;;;;;11.10;7.73;;;;;;;14.67;54.31;97722.00;5029431;28;20561;-70
2024/03/20 07:07:57;;;;;;;9.03;7.40;;;;;;;14.89;54.38;97719.66;5011574;28;20182;-73
2024/03/20 07:10:22;;;;;;;11.60;7.20;;;;;;;15.00;53.89;97721.09;5030755;28;20454;-73
2024/03/20 07:12:48;;;;;;;8.60;7.70;;;;;;;15.08;53.26;97729.03;5029075;28;20241;-70
2024/03/20 07:15:13;;;;;;;12.30;7.17;;;;;;;15.22;53.50;97721.41;5012844;28;20723;-71
2024/03/20 07:17:39;;;;;;;9.93;7.40;;;;;;;15.34;52.93;97720.88;4989173;28;20222;-71
2024/03/20 07:20:06;;;;;;;10.80;7.13;;;;;;;15.40;53.08;97721.19;5016266;28;20187;-71
2024/03/20 07:22:32;;;;;;;9.77;7.30;;;;;;;15.43;52.91;97732.22;5031876;28;20251;-71
2024/03/20 07:24:58;;;;;;;11.63;7.77;;;;;;;15.43;52.60;97720.84;5033250;28;20860;-72
2024/03/20 07:27:23;;;;;;;8.20;7.30;;;;;;;15.52;52.87;97725.91;5028042;28;20425;-71
2024/03/20 07:29:49;;;;;;;10.10;7.73;;;;;;;15.68;52.77;97734.78;5029020;28;20298;-69
2024/03/20 07:32:15;;;;;;;11.93;7.60;;;;;;;15.86;52.57;97733.75;5031053;28;20310;-71
2024/03/20 07:34:40;;;;;;;17.87;7.97;;;;;;;16.00;52.04;97734.81;5031479;28;20182;-70
2024/03/20 07:37:06;;;;;;;11.87;7.60;;;;;;;16.13;51.99;97730.59;5033776;28;20492;-74
2024/03/20 07:39:33;;;;;;;14.23;8.33;;;;;;;16.35;52.02;97730.81;5030324;28;20879;-71
2024/03/20 07:42:02;;;;;;;10.70;8.13;;;;;;;16.51;51.55;97734.28;5035420;28;20423;-74
2024/03/20 07:44:28;;;;;;;10.63;8.03;;;;;;;16.60;50.93;97733.25;5012342;28;20502;-72
2024/03/20 07:46:54;;;;;;;8.67;7.70;;;;;;;16.70;50.85;97744.41;5023786;28;20469;-73
2024/03/20 07:49:19;;;;;;;11.37;6.83;;;;;;;16.80;50.51;97730.09;5033346;28;21055;-71
2024/03/20 07:51:45;;;;;;;7.90;7.10;;;;;;;16.86;50.19;97732.84;5031548;28;20276;-74
2024/03/20 07:54:11;;;;;;;14.83;7.70;;;;;;;16.96;50.32;97730.00;5022018;28;20184;-73
2024/03/20 07:56:37;;;;;;;7.23;6.00;;;;;;;17.11;50.62;97732.66;5026625;28;20199;-74
2024/03/20 07:59:02;;;;;;;7.03;6.27;;;;;;;17.29;49.97;97739.44;5023477;28;20427;-74
2024/03/20 08:01:28;;;;;;;7.63;6.10;;;;;;;17.46;50.19;97740.88;5028600;28;20193;-73
2024/03/20 08:03:54;;;;;;;11.07;5.93;;;;;;;17.63;49.49;97733.56;4990974;28;20173;-72
2024/03/20 08:06:19;;;;;;;10.53;4.70;;;;;;;17.76;47.77;97738.19;5029019;28;20437;-73
2024/03/20 08:08:45;;;;;;;10.70;5.70;;;;;;;17.94;48.25;97743.09;5020599;28;20713;-73
2024/03/20 08:11:10;;;;;;;7.90;5.03;;;;;;;18.07;47.31;97736.34;5021543;28;20203;-74
2024/03/20 08:13:36;;;;;;;7.80;4.63;;;;;;;18.20;47.57;97743.63;5031537;28;20528;-75
2024/03/20 08:16:02;;;;;;;6.10;4.67;;;;;;;18.27;44.90;97733.91;5016606;28;20208;-74
2024/03/20 08:18:31;;;;;;;6.10;4.20;;;;;;;18.44;45.37;97738.97;5022877;28;20427;-73
2024/03/20 08:20:57;;;;;;;7.50;3.57;;;;;;;18.57;41.93;97739.91;5027897;28;20493;-74
2024/03/20 08:23:24;;;;;;;5.20;3.37;;;;;;;18.88;43.36;97741.38;5022034;28;20497;-73
2024/03/20 08:25:50;;;;;;;6.20;4.00;;;;;;;19.12;42.29;97734.03;5028840;28;20438;-72
2024/03/20 08:28:17;;;;;;;5.77;3.47;;;;;;;19.44;42.04;97731.75;5022078;28;20447;-73
2024/03/20 08:30:42;;;;;;;4.07;3.57;;;;;;;19.72;40.95;97728.19;5021436;28;20230;-73
2024/03/20 08:33:09;;;;;;;6.40;3.77;;;;;;;20.00;40.64;97737.94;5022797;28;20504;-71
2024/03/20 08:35:34;;;;;;;3.87;3.10;;;;;;;20.11;40.40;97723.22;5036487;28;20187;-74
2024/03/20 08:38:00;;;;;;;3.70;2.93;;;;;;;20.23;40.03;97728.78;5025392;28;20488;-72
2024/03/20 08:40:26;;;;;;;6.63;3.50;;;;;;;20.49;39.28;97724.53;5031451;28;20176;-70
2024/03/20 08:42:51;;;;;;;5.70;2.33;;;;;;;20.67;38.00;97731.91;5023444;28;20462;-71
2024/03/20 08:45:17;;;;;;;3.63;2.23;;;;;;;20.81;37.96;97722.09;5017822;28;20914;-71
2024/03/20 08:47:43;;;;;;;5.03;2.80;;;;;;;20.92;37.43;97724.16;5033856;28;20188;-72
2024/03/20 08:50:09;;;;;;;3.63;2.60;;;;;;;21.17;36.83;97723.53;5038981;28;20460;-72
2024/03/20 08:52:35;;;;;;;3.70;2.50;;;;;;;21.11;34.75;97733.13;5030887;28;20172;-73
2024/03/20 08:55:01;;;;;;;3.17;2.43;;;;;;;21.31;35.34;97735.78;5039967;28;20192;-71
2024/03/20 08:57:27;;;;;;;2.63;2.43;;;;;;;20.76;34.54;97735.25;5039723;28;20802;-72
2024/03/20 08:59:52;;;;;;;3.23;2.90;;;;;;;20.86;35.14;97730.31;5032095;28;20203;-74
2024/03/20 09:02:17;;;;;;;2.50;2.30;;;;;;;21.04;36.10;97726.22;5031497;28;20726;-72
2024/03/20 09:04:43;;;;;;;3.90;2.27;;;;;;;21.38;35.63;97729.63;5031243;28;20243;-72
2024/03/20 09:07:09;;;;;;;3.87;2.50;;;;;;;21.48;35.81;97727.34;5039451;28;20259;-71
2024/03/20 09:09:35;;;;;;;2.77;2.23;;;;;;;21.74;36.38;97722.97;5031356;28;20200;-72
2024/03/20 09:12:04;;;;;;;6.47;2.63;;;;;;;21.90;35.23;97730.50;5031596;28;20469;-73
2024/03/20 09:14:32;;;;;;;5.53;2.37;;;;;;;21.91;34.58;97725.97;5031971;28;20234;-72
2024/03/20 09:16:58;;;;;;;2.63;2.20;;;;;;;21.89;34.00;97720.84;5037752;28;20431;-71
2024/03/20 09:19:23;;;;;;;2.57;2.37;;;;;;;21.97;34.00;97730.47;5033130;28;20790;-72
2024/03/20 09:21:49;;;;;;;3.33;2.50;;;;;;;21.90;32.60;97727.00;5030999;28;20218;-74
2024/03/20 09:24:19;;;;;;;2.87;2.07;;;;;;;22.19;33.33;97720.25;5038898;28;20645;-73
2024/03/20 09:26:46;;;;;;;3.50;2.50;;;;;;;22.30;32.57;97728.63;5030767;28;20231;-73
2024/03/20 09:29:12;;;;;;;7.17;2.57;;;;;;;22.57;32.49;97723.13;5035202;28;20427;-73
2024/03/20 09:31:37;;;;;;;2.70;2.47;;;;;;;22.77;31.62;97721.13;5031291;28;20426;-73
2024/03/20 09:34:03;;;;;;;2.90;2.23;;;;;;;22.65;31.54;97717.53;5031333;28;20188;-71
2024/03/20 09:36:28;;;;;;;5.27;2.50;;;;;;;22.96;32.31;97716.66;5032348;28;20192;-72
2024/03/20 09:38:55;;;;;;;2.57;2.37;;;;;;;23.33;32.38;97707.88;5038669;28;20237;-72
2024/03/20 09:41:22;;;;;;;2.30;2.10;;;;;;;23.05;30.84;97703.00;5031088;28;20172;-72
2024/03/20 09:43:47;;;;;;;2.77;2.30;;;;;;;23.18;30.84;97702.84;5023518;28;20489;-72
2024/03/20 09:46:15;;;;;;;2.93;2.40;;;;;;;23.07;31.37;97711.59;5033672;28;20450;-72
2024/03/20 09:48:41;;;;;;;3.20;2.47;;;;;;;23.20;32.12;97700.81;5035060;28;20238;-71
2024/03/20 09:51:07;;;;;;;3.50;2.57;;;;;;;23.61;31.67;97703.84;5038723;28;20461;-71
2024/03/20 09:53:34;;;;;;;2.43;2.23;;;;;;;23.62;30.92;97706.31;5029060;28;20192;-71
2024/03/20 09:56:09;;;;;;;4.60;1.90;;;;;;;23.29;30.33;97704.03;5030501;28;20795;-71
2024/03/20 09:58:41;;;;;;;6.67;2.20;;;;;;;23.53;30.98;97698.81;5030732;28;20848;-72
2024/03/20 10:01:09;;;;;;;2.10;1.90;;;;;;;23.96;30.94;97703.22;5041193;28;20415;-73
2024/03/20 10:03:35;;;;;;;5.33;2.47;;;;;;;24.12;31.70;97703.63;5025559;28;20454;-71
2024/03/20 10:06:01;;;;;;;2.97;2.60;;;;;;;24.36;31.09;97686.59;5033179;28;20860;-73
2024/03/20 10:08:27;;;;;;;3.17;2.43;;;;;;;24.15;30.09;97695.97;5032250;28;20427;-72
2024/03/20 10:10:54;;;;;;;2.93;2.30;;;;;;;24.44;29.63;97692.66;5032658;28;20215;-71
2024/03/20 10:13:19;;;;;;;2.50;2.30;;;;;;;24.24;29.01;97691.09;5035510;28;20203;-74
2024/03/20 10:15:45;;;;;;;3.10;2.70;;;;;;;24.40;30.29;97686.94;5032344;28;20620;-72
2024/03/20 10:18:15;;;;;;;8.13;2.47;;;;;;;24.18;28.73;97692.81;5033312;28;20183;-70
2024/03/20 10:20:40;;;;;;;3.97;2.70;;;;;;;23.91;29.04;97698.53;5023362;28;20180;-73
2024/03/20 10:23:06;;;;;;;3.27;2.07;;;;;;;23.80;29.38;97698.50;5041402;28;20991;-73
2024/03/20 10:25:31;;;;;;;1.83;1.73;;;;;;;23.94;29.12;97691.91;5030666;28;20276;-74
2024/03/20 10:27:58;;;;;;;2.00;1.80;;;;;;;24.26;29.45;97696.25;5034634;28;20180;-72
2024/03/20 10:30:24;;;;;;;2.60;2.33;;;;;;;24.19;28.77;97691.00;5028934;28;20192;-72
2024/03/20 10:32:52;;;;;;;3.07;2.47;;;;;;;24.30;28.55;97684.00;5029735;28;20976;-72
2024/03/20 10:35:20;;;;;;;2.97;1.87;;;;;;;24.07;28.97;97688.25;5030232;28;20199;-70
2024/03/20 10:37:47;;;;;;;4.27;2.00;;;;;;;24.10;28.34;97687.81;5037023;28;20419;-72
2024/03/20 10:40:20;;;;;;;2.30;1.60;;;;;;;24.44;30.12;97682.75;5040625;28;20507;-74
2024/03/20 10:42:47;;;;;;;4.37;2.37;;;;;;;24.73;28.75;97679.44;5029909;28;20428;-72
2024/03/20 10:45:13;;;;;;;4.73;2.40;;;;;;;24.94;28.31;97683.41;5032675;28;21249;-73
2024/03/20 10:47:43;;;;;;;4.53;2.00;;;;;;;24.99;28.17;97673.59;5034280;28;20429;-72
2024/03/20 10:50:13;;;;;;;3.40;2.50;;;;;;;24.96;27.89;97684.78;5032014;28;20606;-72
2024/03/20 10:52:39;;;;;;;3.57;2.80;;;;;;;25.09;28.06;97678.38;5028474;28;20415;-72
2024/03/20 10:55:06;;;;;;;5.90;1.93;;;;;;;25.25;28.32;97682.22;5030973;28;20810;-72
2024/03/20 10:57:32;;;;;;;3.47;2.47;;;;;;;25.19;27.73;97683.16;5028994;28;20286;-73
2024/03/20 11:00:00;;;;;;;3.13;2.03;;;;;;;25.49;29.20;97676.81;5034638;28;20425;-73
2024/03/20 11:02:25;;;;;;;4.03;2.43;;;;;;;25.77;27.62;97677.91;5024277;28;20438;-72
2024/03/20 11:04:51;;;;;;;6.87;2.03;;;;;;;25.79;27.36;97675.81;5029096;28;20435;-72
2024/03/20 11:07:23;;;;;;;3.67;2.33;;;;;;;25.64;27.43;97679.00;5024397;28;20172;-72
2024/03/20 11:09:50;;;;;;;2.00;1.90;;;;;;;25.30;26.65;97678.81;5035878;28;20204;-73
2024/03/20 11:12:26;;;;;;;3.47;1.60;;;;;;;25.63;27.20;97676.56;5027284;28;20440;-73
2024/03/20 11:14:51;;;;;;;3.07;1.73;;;;;;;25.88;27.35;97670.88;5029928;28;20422;-73
2024/03/20 11:17:17;;;;;;;8.80;2.30;;;;;;;25.88;26.79;97674.34;5039407;28;20430;-73
2024/03/20 11:19:43;;;;;;;2.33;2.10;;;;;;;25.87;26.82;97669.25;5029359;28;20556;-71
2024/03/20 11:22:22;;;;;;;3.97;2.10;;;;;;;25.87;28.00;97667.34;5035849;28;20255;-73
2024/03/20 11:24:49;;;;;;;6.30;1.77;;;;;;;26.07;27.88;97663.41;5036546;28;20517;-72
2024/03/20 11:27:15;;;;;;;1.50;1.40;;;;;;;26.02;27.79;97668.69;5028746;28;20762;-73